Terminal Aerodrome Forecast
Issued by NWS Wichita, KS

Home | Current Version | Previous Version | Graphics & Text | Print | Product List | Glossary On
Versions: 1 2 3 4 5 6 7 8 9 10 11 12 13
028
FTUS43 KICT 281720
TAFICT
TAF
KICT 281720Z 2818/2918 02013KT P6SM SKC
      TEMPO 2818/2822 02013G22KT
     FM290100 01005KT P6SM SKC
     FM291200 02008KT P6SM SCT015=

USA.gov is the U.S. government's official web portal to all federal, state and local government web resources and services.